sensor_id;sensor_type;location;lat;lon;timestamp;P1;durP1;ratioP1;P2;durP2;ratioP2
30062;SDS011;16889;67.864;24.990;2023-06-10T00:04:02;1.80;;;1.00;;
30062;SDS011;16889;67.864;24.990;2023-06-10T00:08:49;2.25;;;0.85;;
30062;SDS011;16889;67.864;24.990;2023-06-10T00:13:36;2.47;;;1.00;;
30062;SDS011;16889;67.864;24.990;2023-06-10T00:18:22;1.02;;;0.90;;
30062;SDS011;16889;67.864;24.990;2023-06-10T00:23:08;0.95;;;0.75;;
30062;SDS011;16889;67.864;24.990;2023-06-10T00:27:55;4.93;;;0.80;;
30062;SDS011;16889;67.864;24.990;2023-06-10T00:32:41;2.75;;;1.02;;
30062;SDS011;16889;67.864;24.990;2023-06-10T00:37:27;1.40;;;1.00;;
30062;SDS011;16889;67.864;24.990;2023-06-10T00:42:14;1.53;;;1.00;;
30062;SDS011;16889;67.864;24.990;2023-06-10T00:47:00;1.00;;;0.90;;
30062;SDS011;16889;67.864;24.990;2023-06-10T00:51:46;2.30;;;0.82;;
30062;SDS011;16889;67.864;24.990;2023-06-10T00:56:32;1.20;;;0.82;;
30062;SDS011;16889;67.864;24.990;2023-06-10T01:01:20;1.10;;;0.80;;
30062;SDS011;16889;67.864;24.990;2023-06-10T01:10:55;0.82;;;0.70;;
30062;SDS011;16889;67.864;24.990;2023-06-10T01:15:45;1.30;;;0.80;;
30062;SDS011;16889;67.864;24.990;2023-06-10T01:20:31;0.80;;;0.70;;
30062;SDS011;16889;67.864;24.990;2023-06-10T01:25:18;2.95;;;1.02;;
30062;SDS011;16889;67.864;24.990;2023-06-10T01:30:08;1.40;;;0.85;;
30062;SDS011;16889;67.864;24.990;2023-06-10T01:35:01;1.58;;;0.90;;
30062;SDS011;16889;67.864;24.990;2023-06-10T01:39:48;1.48;;;1.10;;
30062;SDS011;16889;67.864;24.990;2023-06-10T01:44:34;0.93;;;0.82;;
30062;SDS011;16889;67.864;24.990;2023-06-10T01:49:20;2.95;;;0.82;;
30062;SDS011;16889;67.864;24.990;2023-06-10T01:54:09;1.58;;;0.90;;
30062;SDS011;16889;67.864;24.990;2023-06-10T01:58:55;1.20;;;1.00;;
30062;SDS011;16889;67.864;24.990;2023-06-10T02:03:44;2.65;;;1.00;;
30062;SDS011;16889;67.864;24.990;2023-06-10T02:08:30;3.42;;;1.00;;
30062;SDS011;16889;67.864;24.990;2023-06-10T02:13:16;1.98;;;0.90;;
30062;SDS011;16889;67.864;24.990;2023-06-10T02:18:02;1.33;;;0.90;;
30062;SDS011;16889;67.864;24.990;2023-06-10T02:22:48;1.52;;;0.70;;
30062;SDS011;16889;67.864;24.990;2023-06-10T02:27:34;2.80;;;1.05;;
30062;SDS011;16889;67.864;24.990;2023-06-10T02:32:20;1.40;;;0.93;;
30062;SDS011;16889;67.864;24.990;2023-06-10T02:37:06;2.03;;;0.88;;
30062;SDS011;16889;67.864;24.990;2023-06-10T02:41:52;1.40;;;0.80;;
30062;SDS011;16889;67.864;24.990;2023-06-10T02:46:38;1.05;;;0.73;;
30062;SDS011;16889;67.864;24.990;2023-06-10T02:51:24;1.67;;;0.90;;
30062;SDS011;16889;67.864;24.990;2023-06-10T02:56:10;1.45;;;0.90;;
30062;SDS011;16889;67.864;24.990;2023-06-10T03:00:57;1.77;;;0.80;;
30062;SDS011;16889;67.864;24.990;2023-06-10T03:05:43;1.27;;;0.60;;
30062;SDS011;16889;67.864;24.990;2023-06-10T03:10:29;0.77;;;0.70;;
30062;SDS011;16889;67.864;24.990;2023-06-10T03:15:16;1.65;;;0.63;;
30062;SDS011;16889;67.864;24.990;2023-06-10T03:20:03;1.42;;;0.70;;
30062;SDS011;16889;67.864;24.990;2023-06-10T03:24:50;1.48;;;0.60;;
30062;SDS011;16889;67.864;24.990;2023-06-10T03:29:37;1.52;;;0.60;;
30062;SDS011;16889;67.864;24.990;2023-06-10T03:34:23;2.30;;;0.73;;
30062;SDS011;16889;67.864;24.990;2023-06-10T03:39:09;1.77;;;0.68;;
30062;SDS011;16889;67.864;24.990;2023-06-10T03:43:55;2.65;;;0.75;;
30062;SDS011;16889;67.864;24.990;2023-06-10T03:48:41;1.15;;;0.60;;
30062;SDS011;16889;67.864;24.990;2023-06-10T03:53:27;0.90;;;0.57;;
30062;SDS011;16889;67.864;24.990;2023-06-10T03:58:13;0.75;;;0.60;;
30062;SDS011;16889;67.864;24.990;2023-06-10T04:02:59;3.33;;;0.65;;
30062;SDS011;16889;67.864;24.990;2023-06-10T04:07:46;1.65;;;0.70;;
30062;SDS011;16889;67.864;24.990;2023-06-10T04:12:33;2.17;;;0.60;;
30062;SDS011;16889;67.864;24.990;2023-06-10T04:17:19;1.15;;;0.75;;
30062;SDS011;16889;67.864;24.990;2023-06-10T04:22:06;1.30;;;0.80;;
30062;SDS011;16889;67.864;24.990;2023-06-10T04:26:52;1.20;;;0.85;;
30062;SDS011;16889;67.864;24.990;2023-06-10T04:31:38;3.13;;;0.70;;
30062;SDS011;16889;67.864;24.990;2023-06-10T04:36:24;1.23;;;0.55;;
30062;SDS011;16889;67.864;24.990;2023-06-10T04:41:10;0.45;;;0.40;;
30062;SDS011;16889;67.864;24.990;2023-06-10T04:45:56;0.52;;;0.47;;
30062;SDS011;16889;67.864;24.990;2023-06-10T04:50:42;0.85;;;0.60;;
30062;SDS011;16889;67.864;24.990;2023-06-10T04:55:28;0.70;;;0.50;;
30062;SDS011;16889;67.864;24.990;2023-06-10T05:00:14;0.60;;;0.55;;
30062;SDS011;16889;67.864;24.990;2023-06-10T05:05:00;0.65;;;0.32;;
30062;SDS011;16889;67.864;24.990;2023-06-10T05:09:46;0.47;;;0.35;;
30062;SDS011;16889;67.864;24.990;2023-06-10T05:14:32;0.40;;;0.30;;
30062;SDS011;16889;67.864;24.990;2023-06-10T05:19:18;1.30;;;0.50;;
30062;SDS011;16889;67.864;24.990;2023-06-10T05:24:04;0.60;;;0.40;;
30062;SDS011;16889;67.864;24.990;2023-06-10T05:28:51;0.85;;;0.50;;
30062;SDS011;16889;67.864;24.990;2023-06-10T05:33:37;0.93;;;0.52;;
30062;SDS011;16889;67.864;24.990;2023-06-10T05:38:24;0.73;;;0.50;;
30062;SDS011;16889;67.864;24.990;2023-06-10T05:43:10;0.57;;;0.43;;
30062;SDS011;16889;67.864;24.990;2023-06-10T05:47:56;1.17;;;0.50;;
30062;SDS011;16889;67.864;24.990;2023-06-10T05:52:42;0.40;;;0.38;;
30062;SDS011;16889;67.864;24.990;2023-06-10T05:57:28;0.90;;;0.43;;
30062;SDS011;16889;67.864;24.990;2023-06-10T06:02:14;2.75;;;0.68;;
30062;SDS011;16889;67.864;24.990;2023-06-10T06:07:00;1.33;;;0.68;;
30062;SDS011;16889;67.864;24.990;2023-06-10T06:11:46;1.27;;;0.60;;
30062;SDS011;16889;67.864;24.990;2023-06-10T06:16:32;0.73;;;0.40;;
30062;SDS011;16889;67.864;24.990;2023-06-10T06:21:18;1.40;;;0.40;;
30062;SDS011;16889;67.864;24.990;2023-06-10T06:26:04;0.70;;;0.43;;
30062;SDS011;16889;67.864;24.990;2023-06-10T06:30:51;0.57;;;0.50;;
30062;SDS011;16889;67.864;24.990;2023-06-10T06:35:37;2.45;;;0.50;;
30062;SDS011;16889;67.864;24.990;2023-06-10T06:40:23;0.70;;;0.57;;
30062;SDS011;16889;67.864;24.990;2023-06-10T06:45:09;1.52;;;0.70;;
30062;SDS011;16889;67.864;24.990;2023-06-10T06:49:55;2.55;;;0.40;;
30062;SDS011;16889;67.864;24.990;2023-06-10T06:54:41;0.60;;;0.40;;
30062;SDS011;16889;67.864;24.990;2023-06-10T06:59:27;0.93;;;0.50;;
30062;SDS011;16889;67.864;24.990;2023-06-10T07:04:14;0.90;;;0.50;;
30062;SDS011;16889;67.864;24.990;2023-06-10T07:09:01;3.10;;;0.50;;
30062;SDS011;16889;67.864;24.990;2023-06-10T07:13:47;1.60;;;0.45;;
30062;SDS011;16889;67.864;24.990;2023-06-10T07:18:33;0.70;;;0.50;;
30062;SDS011;16889;67.864;24.990;2023-06-10T07:23:19;2.50;;;0.60;;
30062;SDS011;16889;67.864;24.990;2023-06-10T07:28:05;0.90;;;0.60;;
30062;SDS011;16889;67.864;24.990;2023-06-10T07:32:51;1.27;;;0.47;;
30062;SDS011;16889;67.864;24.990;2023-06-10T07:37:37;1.30;;;0.60;;
30062;SDS011;16889;67.864;24.990;2023-06-10T07:42:23;0.95;;;0.50;;
30062;SDS011;16889;67.864;24.990;2023-06-10T07:47:09;1.98;;;0.50;;
30062;SDS011;16889;67.864;24.990;2023-06-10T07:51:55;1.55;;;0.50;;
30062;SDS011;16889;67.864;24.990;2023-06-10T07:56:40;2.78;;;0.60;;
30062;SDS011;16889;67.864;24.990;2023-06-10T08:01:26;0.75;;;0.45;;
30062;SDS011;16889;67.864;24.990;2023-06-10T08:06:12;1.50;;;0.63;;
30062;SDS011;16889;67.864;24.990;2023-06-10T08:10:59;0.77;;;0.50;;
30062;SDS011;16889;67.864;24.990;2023-06-10T08:15:45;0.85;;;0.47;;
30062;SDS011;16889;67.864;24.990;2023-06-10T08:20:32;2.95;;;0.40;;
30062;SDS011;16889;67.864;24.990;2023-06-10T08:25:18;0.60;;;0.40;;
30062;SDS011;16889;67.864;24.990;2023-06-10T08:30:07;1.10;;;0.60;;
30062;SDS011;16889;67.864;24.990;2023-06-10T08:34:55;1.60;;;0.60;;
30062;SDS011;16889;67.864;24.990;2023-06-10T08:39:41;0.80;;;0.40;;
30062;SDS011;16889;67.864;24.990;2023-06-10T08:44:28;1.05;;;0.47;;
30062;SDS011;16889;67.864;24.990;2023-06-10T08:49:17;0.65;;;0.40;;
30062;SDS011;16889;67.864;24.990;2023-06-10T08:54:15;0.85;;;0.47;;
30062;SDS011;16889;67.864;24.990;2023-06-10T08:59:06;0.52;;;0.45;;
30062;SDS011;16889;67.864;24.990;2023-06-10T09:03:52;0.40;;;0.40;;
30062;SDS011;16889;67.864;24.990;2023-06-10T09:08:39;0.63;;;0.35;;
30062;SDS011;16889;67.864;24.990;2023-06-10T09:13:26;2.30;;;0.50;;
30062;SDS011;16889;67.864;24.990;2023-06-10T09:18:12;2.35;;;0.50;;
30062;SDS011;16889;67.864;24.990;2023-06-10T09:22:59;0.65;;;0.50;;
30062;SDS011;16889;67.864;24.990;2023-06-10T09:27:46;0.47;;;0.40;;
30062;SDS011;16889;67.864;24.990;2023-06-10T09:32:38;0.40;;;0.30;;
30062;SDS011;16889;67.864;24.990;2023-06-10T09:37:25;0.70;;;0.50;;
30062;SDS011;16889;67.864;24.990;2023-06-10T09:42:18;0.90;;;0.60;;
30062;SDS011;16889;67.864;24.990;2023-06-10T09:47:04;1.20;;;0.60;;
30062;SDS011;16889;67.864;24.990;2023-06-10T09:51:51;0.43;;;0.43;;
30062;SDS011;16889;67.864;24.990;2023-06-10T09:56:40;0.70;;;0.50;;
30062;SDS011;16889;67.864;24.990;2023-06-10T10:01:27;1.13;;;0.50;;
30062;SDS011;16889;67.864;24.990;2023-06-10T10:06:16;1.08;;;0.60;;
30062;SDS011;16889;67.864;24.990;2023-06-10T10:11:03;0.55;;;0.30;;
30062;SDS011;16889;67.864;24.990;2023-06-10T10:15:49;0.88;;;0.40;;
30062;SDS011;16889;67.864;24.990;2023-06-10T10:20:37;1.55;;;0.32;;
30062;SDS011;16889;67.864;24.990;2023-06-10T10:25:37;0.88;;;0.50;;
30062;SDS011;16889;67.864;24.990;2023-06-10T10:30:25;0.95;;;0.52;;
30062;SDS011;16889;67.864;24.990;2023-06-10T10:35:14;0.40;;;0.40;;
30062;SDS011;16889;67.864;24.990;2023-06-10T10:40:06;0.63;;;0.50;;
30062;SDS011;16889;67.864;24.990;2023-06-10T10:44:53;0.80;;;0.52;;
30062;SDS011;16889;67.864;24.990;2023-06-10T10:49:41;2.67;;;0.65;;
30062;SDS011;16889;67.864;24.990;2023-06-10T10:59:20;1.45;;;0.60;;
30062;SDS011;16889;67.864;24.990;2023-06-10T11:04:07;1.98;;;0.70;;
30062;SDS011;16889;67.864;24.990;2023-06-10T11:08:54;1.75;;;0.40;;
30062;SDS011;16889;67.864;24.990;2023-06-10T11:13:40;1.35;;;0.50;;
30062;SDS011;16889;67.864;24.990;2023-06-10T11:18:46;1.88;;;0.60;;
30062;SDS011;16889;67.864;24.990;2023-06-10T11:23:40;2.03;;;0.60;;
30062;SDS011;16889;67.864;24.990;2023-06-10T11:28:27;1.15;;;0.70;;
30062;SDS011;16889;67.864;24.990;2023-06-10T11:33:14;0.82;;;0.50;;
30062;SDS011;16889;67.864;24.990;2023-06-10T11:38:02;1.25;;;0.50;;
30062;SDS011;16889;67.864;24.990;2023-06-10T11:42:48;2.15;;;0.60;;
30062;SDS011;16889;67.864;24.990;2023-06-10T11:47:34;1.00;;;0.80;;
30062;SDS011;16889;67.864;24.990;2023-06-10T11:52:25;1.88;;;0.70;;
30062;SDS011;16889;67.864;24.990;2023-06-10T11:57:13;1.65;;;0.68;;
30062;SDS011;16889;67.864;24.990;2023-06-10T12:01:59;1.65;;;0.60;;
30062;SDS011;16889;67.864;24.990;2023-06-10T12:11:35;2.25;;;0.70;;
30062;SDS011;16889;67.864;24.990;2023-06-10T12:16:21;1.45;;;0.75;;
30062;SDS011;16889;67.864;24.990;2023-06-10T12:21:17;1.67;;;0.70;;
30062;SDS011;16889;67.864;24.990;2023-06-10T12:26:13;0.95;;;0.70;;
30062;SDS011;16889;67.864;24.990;2023-06-10T12:31:06;1.50;;;0.75;;
30062;SDS011;16889;67.864;24.990;2023-06-10T12:35:53;2.58;;;0.75;;
30062;SDS011;16889;67.864;24.990;2023-06-10T12:40:39;2.35;;;0.90;;
30062;SDS011;16889;67.864;24.990;2023-06-10T12:45:30;1.10;;;0.80;;
30062;SDS011;16889;67.864;24.990;2023-06-10T12:50:17;1.77;;;0.85;;
30062;SDS011;16889;67.864;24.990;2023-06-10T12:55:03;2.95;;;0.70;;
30062;SDS011;16889;67.864;24.990;2023-06-10T12:59:50;1.70;;;0.70;;
30062;SDS011;16889;67.864;24.990;2023-06-10T13:04:37;2.05;;;0.70;;
30062;SDS011;16889;67.864;24.990;2023-06-10T13:09:24;4.15;;;0.80;;
30062;SDS011;16889;67.864;24.990;2023-06-10T13:14:10;0.93;;;0.60;;
30062;SDS011;16889;67.864;24.990;2023-06-10T13:18:56;1.13;;;0.77;;
30062;SDS011;16889;67.864;24.990;2023-06-10T13:23:43;3.35;;;0.80;;
30062;SDS011;16889;67.864;24.990;2023-06-10T13:28:32;2.30;;;0.70;;
30062;SDS011;16889;67.864;24.990;2023-06-10T13:33:18;1.48;;;0.95;;
30062;SDS011;16889;67.864;24.990;2023-06-10T13:38:04;1.35;;;0.80;;
30062;SDS011;16889;67.864;24.990;2023-06-10T13:42:50;1.75;;;0.77;;
30062;SDS011;16889;67.864;24.990;2023-06-10T13:47:37;1.10;;;0.63;;
30062;SDS011;16889;67.864;24.990;2023-06-10T13:52:23;2.08;;;0.70;;
30062;SDS011;16889;67.864;24.990;2023-06-10T13:57:10;1.67;;;0.90;;
30062;SDS011;16889;67.864;24.990;2023-06-10T14:01:56;1.83;;;0.80;;
30062;SDS011;16889;67.864;24.990;2023-06-10T14:06:42;1.00;;;0.70;;
30062;SDS011;16889;67.864;24.990;2023-06-10T14:11:28;1.02;;;0.80;;
30062;SDS011;16889;67.864;24.990;2023-06-10T14:16:14;2.38;;;0.60;;
30062;SDS011;16889;67.864;24.990;2023-06-10T14:21:00;1.02;;;0.70;;
30062;SDS011;16889;67.864;24.990;2023-06-10T14:25:46;2.63;;;0.80;;
30062;SDS011;16889;67.864;24.990;2023-06-10T14:30:32;4.07;;;0.70;;
30062;SDS011;16889;67.864;24.990;2023-06-10T14:35:18;2.78;;;0.80;;
30062;SDS011;16889;67.864;24.990;2023-06-10T14:40:05;0.70;;;0.60;;
30062;SDS011;16889;67.864;24.990;2023-06-10T14:44:52;2.97;;;0.90;;
30062;SDS011;16889;67.864;24.990;2023-06-10T14:49:38;1.63;;;0.50;;
30062;SDS011;16889;67.864;24.990;2023-06-10T14:54:24;1.15;;;0.60;;
30062;SDS011;16889;67.864;24.990;2023-06-10T14:59:10;5.43;;;1.05;;
30062;SDS011;16889;67.864;24.990;2023-06-10T15:03:56;1.52;;;0.70;;
30062;SDS011;16889;67.864;24.990;2023-06-10T15:08:42;1.42;;;0.60;;
30062;SDS011;16889;67.864;24.990;2023-06-10T15:13:28;0.98;;;0.60;;
30062;SDS011;16889;67.864;24.990;2023-06-10T15:18:14;1.67;;;0.77;;
30062;SDS011;16889;67.864;24.990;2023-06-10T15:23:00;3.15;;;0.80;;
30062;SDS011;16889;67.864;24.990;2023-06-10T15:27:46;5.78;;;0.70;;
30062;SDS011;16889;67.864;24.990;2023-06-10T15:32:32;1.75;;;0.60;;
30062;SDS011;16889;67.864;24.990;2023-06-10T15:37:18;1.27;;;0.60;;
30062;SDS011;16889;67.864;24.990;2023-06-10T15:42:06;1.10;;;0.73;;
30062;SDS011;16889;67.864;24.990;2023-06-10T15:46:52;2.30;;;1.02;;
30062;SDS011;16889;67.864;24.990;2023-06-10T15:51:38;1.15;;;0.73;;
30062;SDS011;16889;67.864;24.990;2023-06-10T15:56:23;3.10;;;0.82;;
30062;SDS011;16889;67.864;24.990;2023-06-10T16:01:10;2.30;;;0.70;;
30062;SDS011;16889;67.864;24.990;2023-06-10T16:05:57;4.15;;;0.80;;
30062;SDS011;16889;67.864;24.990;2023-06-10T16:10:43;3.92;;;0.60;;
30062;SDS011;16889;67.864;24.990;2023-06-10T16:15:28;1.23;;;0.82;;
30062;SDS011;16889;67.864;24.990;2023-06-10T16:20:15;4.30;;;0.80;;
30062;SDS011;16889;67.864;24.990;2023-06-10T16:25:00;2.35;;;0.60;;
30062;SDS011;16889;67.864;24.990;2023-06-10T16:29:46;1.98;;;0.80;;
30062;SDS011;16889;67.864;24.990;2023-06-10T16:34:32;1.08;;;0.60;;
30062;SDS011;16889;67.864;24.990;2023-06-10T16:39:18;2.47;;;0.63;;
30062;SDS011;16889;67.864;24.990;2023-06-10T16:44:04;2.60;;;0.60;;
30062;SDS011;16889;67.864;24.990;2023-06-10T16:48:50;2.70;;;0.70;;
30062;SDS011;16889;67.864;24.990;2023-06-10T16:53:36;2.90;;;0.65;;
30062;SDS011;16889;67.864;24.990;2023-06-10T16:58:22;5.10;;;0.73;;
30062;SDS011;16889;67.864;24.990;2023-06-10T17:03:08;3.03;;;0.82;;
30062;SDS011;16889;67.864;24.990;2023-06-10T17:07:55;1.35;;;0.60;;
30062;SDS011;16889;67.864;24.990;2023-06-10T17:12:41;2.88;;;0.80;;
30062;SDS011;16889;67.864;24.990;2023-06-10T17:17:27;1.55;;;0.90;;
30062;SDS011;16889;67.864;24.990;2023-06-10T17:22:13;3.47;;;0.80;;
30062;SDS011;16889;67.864;24.990;2023-06-10T17:26:59;1.25;;;0.70;;
30062;SDS011;16889;67.864;24.990;2023-06-10T17:31:45;2.58;;;0.77;;
30062;SDS011;16889;67.864;24.990;2023-06-10T17:36:31;1.17;;;0.88;;
30062;SDS011;16889;67.864;24.990;2023-06-10T17:41:17;2.70;;;0.60;;
30062;SDS011;16889;67.864;24.990;2023-06-10T17:46:03;1.95;;;0.75;;
30062;SDS011;16889;67.864;24.990;2023-06-10T17:50:49;3.22;;;0.77;;
30062;SDS011;16889;67.864;24.990;2023-06-10T17:55:35;1.67;;;0.80;;
30062;SDS011;16889;67.864;24.990;2023-06-10T18:00:21;1.73;;;0.70;;
30062;SDS011;16889;67.864;24.990;2023-06-10T18:05:08;2.03;;;0.70;;
30062;SDS011;16889;67.864;24.990;2023-06-10T18:09:54;3.45;;;0.60;;
30062;SDS011;16889;67.864;24.990;2023-06-10T18:14:40;4.68;;;0.63;;
30062;SDS011;16889;67.864;24.990;2023-06-10T18:19:26;1.60;;;0.65;;
30062;SDS011;16889;67.864;24.990;2023-06-10T18:24:12;2.88;;;0.60;;
30062;SDS011;16889;67.864;24.990;2023-06-10T18:29:00;4.35;;;0.80;;
30062;SDS011;16889;67.864;24.990;2023-06-10T18:33:46;0.90;;;0.50;;
30062;SDS011;16889;67.864;24.990;2023-06-10T18:38:32;1.95;;;0.80;;
30062;SDS011;16889;67.864;24.990;2023-06-10T18:43:18;3.38;;;0.70;;
30062;SDS011;16889;67.864;24.990;2023-06-10T18:48:04;0.95;;;0.63;;
30062;SDS011;16889;67.864;24.990;2023-06-10T18:52:50;2.90;;;0.65;;
30062;SDS011;16889;67.864;24.990;2023-06-10T18:57:36;1.83;;;0.68;;
30062;SDS011;16889;67.864;24.990;2023-06-10T19:02:22;1.20;;;0.70;;
30062;SDS011;16889;67.864;24.990;2023-06-10T19:07:08;1.85;;;0.60;;
30062;SDS011;16889;67.864;24.990;2023-06-10T19:11:54;0.73;;;0.50;;
30062;SDS011;16889;67.864;24.990;2023-06-10T19:16:40;5.28;;;0.90;;
30062;SDS011;16889;67.864;24.990;2023-06-10T19:21:26;4.03;;;0.80;;
30062;SDS011;16889;67.864;24.990;2023-06-10T19:26:12;2.83;;;0.70;;
30062;SDS011;16889;67.864;24.990;2023-06-10T19:30:59;1.73;;;0.60;;
30062;SDS011;16889;67.864;24.990;2023-06-10T19:35:44;2.38;;;0.80;;
30062;SDS011;16889;67.864;24.990;2023-06-10T19:40:31;1.25;;;0.80;;
30062;SDS011;16889;67.864;24.990;2023-06-10T19:45:16;2.22;;;0.60;;
30062;SDS011;16889;67.864;24.990;2023-06-10T19:50:02;1.17;;;0.70;;
30062;SDS011;16889;67.864;24.990;2023-06-10T19:54:49;2.22;;;0.88;;
30062;SDS011;16889;67.864;24.990;2023-06-10T19:59:34;1.55;;;0.60;;
30062;SDS011;16889;67.864;24.990;2023-06-10T20:04:20;2.60;;;0.93;;
30062;SDS011;16889;67.864;24.990;2023-06-10T20:09:06;1.50;;;0.70;;
30062;SDS011;16889;67.864;24.990;2023-06-10T20:13:52;4.07;;;0.70;;
30062;SDS011;16889;67.864;24.990;2023-06-10T20:18:38;3.72;;;1.05;;
30062;SDS011;16889;67.864;24.990;2023-06-10T20:23:25;1.40;;;0.80;;
30062;SDS011;16889;67.864;24.990;2023-06-10T20:28:11;1.50;;;0.75;;
30062;SDS011;16889;67.864;24.990;2023-06-10T20:32:56;1.90;;;0.73;;
30062;SDS011;16889;67.864;24.990;2023-06-10T20:37:43;3.17;;;1.10;;
30062;SDS011;16889;67.864;24.990;2023-06-10T20:42:31;8.73;;;0.80;;
30062;SDS011;16889;67.864;24.990;2023-06-10T20:47:17;2.03;;;0.90;;
30062;SDS011;16889;67.864;24.990;2023-06-10T20:52:03;2.47;;;0.77;;
30062;SDS011;16889;67.864;24.990;2023-06-10T20:56:49;2.83;;;0.90;;
30062;SDS011;16889;67.864;24.990;2023-06-10T21:01:35;2.00;;;0.70;;
30062;SDS011;16889;67.864;24.990;2023-06-10T21:06:21;0.93;;;0.60;;
30062;SDS011;16889;67.864;24.990;2023-06-10T21:11:07;1.80;;;0.80;;
30062;SDS011;16889;67.864;24.990;2023-06-10T21:15:53;2.13;;;0.80;;
30062;SDS011;16889;67.864;24.990;2023-06-10T21:20:39;2.90;;;0.82;;
30062;SDS011;16889;67.864;24.990;2023-06-10T21:25:25;2.35;;;0.75;;
30062;SDS011;16889;67.864;24.990;2023-06-10T21:30:11;1.95;;;0.80;;
30062;SDS011;16889;67.864;24.990;2023-06-10T21:34:57;1.77;;;0.80;;
30062;SDS011;16889;67.864;24.990;2023-06-10T21:39:43;1.08;;;0.80;;
30062;SDS011;16889;67.864;24.990;2023-06-10T21:44:29;0.95;;;0.63;;
30062;SDS011;16889;67.864;24.990;2023-06-10T21:49:15;3.25;;;1.00;;
30062;SDS011;16889;67.864;24.990;2023-06-10T21:54:02;3.40;;;0.90;;
30062;SDS011;16889;67.864;24.990;2023-06-10T21:58:48;3.75;;;0.93;;
30062;SDS011;16889;67.864;24.990;2023-06-10T22:03:34;2.97;;;0.82;;
30062;SDS011;16889;67.864;24.990;2023-06-10T22:08:19;4.10;;;1.02;;
30062;SDS011;16889;67.864;24.990;2023-06-10T22:13:06;2.75;;;1.00;;
30062;SDS011;16889;67.864;24.990;2023-06-10T22:17:55;4.95;;;0.80;;
30062;SDS011;16889;67.864;24.990;2023-06-10T22:22:41;4.20;;;0.82;;
30062;SDS011;16889;67.864;24.990;2023-06-10T22:27:27;1.88;;;0.85;;
30062;SDS011;16889;67.864;24.990;2023-06-10T22:32:13;4.63;;;0.90;;
30062;SDS011;16889;67.864;24.990;2023-06-10T22:36:59;1.95;;;0.90;;
30062;SDS011;16889;67.864;24.990;2023-06-10T22:41:45;4.13;;;0.90;;
30062;SDS011;16889;67.864;24.990;2023-06-10T22:46:31;1.85;;;0.70;;
30062;SDS011;16889;67.864;24.990;2023-06-10T22:51:17;3.33;;;0.82;;
30062;SDS011;16889;67.864;24.990;2023-06-10T22:56:03;2.53;;;0.90;;
30062;SDS011;16889;67.864;24.990;2023-06-10T23:00:50;3.40;;;0.98;;
30062;SDS011;16889;67.864;24.990;2023-06-10T23:05:36;2.03;;;0.88;;
30062;SDS011;16889;67.864;24.990;2023-06-10T23:10:22;1.45;;;0.70;;
30062;SDS011;16889;67.864;24.990;2023-06-10T23:15:08;1.38;;;0.88;;
30062;SDS011;16889;67.864;24.990;2023-06-10T23:19:54;2.58;;;0.90;;
30062;SDS011;16889;67.864;24.990;2023-06-10T23:24:41;3.78;;;0.90;;
30062;SDS011;16889;67.864;24.990;2023-06-10T23:29:29;2.47;;;0.75;;
30062;SDS011;16889;67.864;24.990;2023-06-10T23:34:15;2.53;;;1.10;;
30062;SDS011;16889;67.864;24.990;2023-06-10T23:39:01;1.25;;;0.98;;
30062;SDS011;16889;67.864;24.990;2023-06-10T23:43:48;3.50;;;0.90;;
30062;SDS011;16889;67.864;24.990;2023-06-10T23:48:34;3.50;;;1.05;;
30062;SDS011;16889;67.864;24.990;2023-06-10T23:53:20;0.80;;;0.70;;
30062;SDS011;16889;67.864;24.990;2023-06-10T23:58:06;6.45;;;1.05;;
